Ana Sayfa
METAR-TAF:

METAR-TAF

Havaalanları :

Bellaire, Michigan, Amerika Birleşik Devletleri

Enlem: 44-59-18N, Boylam: 085-11-54W, yükseklik: 190 m

Güncel hava durumu gözlemi

Rapor saat 00:35 UTC de 23 dakika önce yapıldı.
Rüzgar güneybatıdan 4 kt
Sıcaklık 25°C
Nem 50%
Basınç 1008 hPa
Görüş mesafesi: 16.1 km
Açık gökyüzü

METAR: KACB 260035Z AUTO 23004KT 10SM CLR 25/14 A2978 RMK AO2 T02460139

Saat: 20:58 (00:58 UTC)


TAF: eksik

4.000'den fazla havaalanı için hava durumu gözlemleri ve tahminleri (METAR ve TAF raporları).

Kullanılabilir istasyonlar harita üzerinde sarı ve kırmızı noktalarla gösterilir.

İstasyonun adını görmek için fareyi noktanın üzerinde gezdirin.

Sonrasında hava gözlem ve tahminlerini görmek için tıklayın.

Haritayı değiştirmek için: yaklaştırmak için siyah artı işaretli yeşil düğmeye ve uzaklaştırmak için de eksi işaretli düğmeye hızla tıklayın; bitişik haritalar için yeşil okları kullanın.


METAR-TAF: